Baileyville, IL (61007)

4:28 AM CDT on October 24, 2017 (GMT -0500)
Freeport South | | Change Station

Elev 846 ft 42.26 °N, 89.60 °W | Updated 17 seconds ago

Rain
Rain
43.9 °F
Feels Like 40 °F
N
6.0
Wind Variable Wind from WNW

Today
High -- | Low -- °F
--% Chance of Precip.
Yesterday
High -- | Low -- °F
Precip. -- in
Pressure 29.60 in
Visibility 7.0 miles
Clouds Mostly Cloudy 1600 ft
Overcast 2200 ft
Windchill 40 °F
Dew Point 42 °F
Humidity 95%
Rainfall 0.09 in
Snow Depth Not available.
7:21 AM 6:02 PM
Waxing Crescent, 19% visible
METAR KFEP 240915Z AUTO 29012G19KT 7SM -RA BKN016 OVC022 07/06 A2960 RMK AO2 P0002 T00660055
Pressure 29.60 in
Visibility 7.0 miles
Clouds Mostly Cloudy 1600 ft
Overcast 2200 ft
Windchill 40 °F
Dew Point 42 °F
Humidity 95%
Rainfall 0.09 in
Snow Depth Not available.
7:21 AM 6:02 PM
Waxing Crescent, 19% visible
METAR KFEP 240915Z AUTO 29012G19KT 7SM -RA BKN016 OVC022 07/06 A2960 RMK AO2 P0002 T00660055

Get Severe Weather Alerts

Thanks for signing up!

Be on the lookout for a verification email in your inbox.

You'll start receiving the daily forecast at 6 AM.

×

10-Day Weather Forecast

Almanac

Astronomy

Oct. 24, 2017 Rise Set
Actual Time
Civil Twilight
Nautical Twilight
Astronomical Twilight
Moon
Length of Visible Light
Length of Day
Tomorrow will be .
, % of the Moon is Illuminated

Today's Extremes

State Highs State Lows

Community

WunderPhotos

Category 6

Welcome to Category 6. This is the collective home for Weather Underground's featured writeups by Dr. Jeff Masters (right), Bob Henson (left), Chris Burt, and other regular contributors.

Nearby

Air Quality

  Air Quality AQ Index Pollutant
Not available.

Snow Depth

Station Depth Elevation

Earthquake Activity

City Distance Mag. Time & Date
Minimum magnitude displayed is 2.5.

Coastal Water Temperatures

Place Temperature

Stations

Nearby Weather Stations

Station Location Temp. Windchill Dew Point Humidity Wind Precip. Elev Updated Type
                   

Watches & Warnings

There are currently no watches in effect.